createdAt,value
2022-11-19T00:00:37.223Z,-2.52
2022-11-19T00:03:06.558Z,-2.49
2022-11-19T00:05:40.709Z,-2.49
2022-11-19T00:08:10.810Z,-2.43
2022-11-19T00:10:40.715Z,-2.39
2022-11-19T00:13:10.700Z,-2.38
2022-11-19T00:15:40.271Z,-2.35
2022-11-19T00:18:12.868Z,-2.36
2022-11-19T00:20:42.272Z,-2.34
2022-11-19T00:23:11.549Z,-2.32
2022-11-19T00:25:41.030Z,-2.36
2022-11-19T00:28:10.467Z,-2.35
2022-11-19T00:30:48.458Z,-2.38
2022-11-19T00:33:18.510Z,-2.41
2022-11-19T00:35:48.050Z,-2.46
2022-11-19T00:38:18.281Z,-2.48
2022-11-19T00:40:47.739Z,-2.49
2022-11-19T00:43:35.113Z,-2.51
2022-11-19T00:46:04.721Z,-2.53
2022-11-19T00:48:35.082Z,-2.54
2022-11-19T00:51:08.650Z,-2.52
2022-11-19T00:53:38.200Z,-2.52
2022-11-19T00:56:10.321Z,-2.50
2022-11-19T00:58:41.108Z,-2.48
2022-11-19T01:01:11.779Z,-2.49
2022-11-19T01:03:42.402Z,-2.49
2022-11-19T01:06:15.255Z,-2.51
2022-11-19T01:08:48.864Z,-2.53
2022-11-19T01:11:20.173Z,-2.54
2022-11-19T01:13:49.779Z,-2.56
2022-11-19T01:16:21.882Z,-2.59
2022-11-19T01:18:51.997Z,-2.64
2022-11-19T01:21:23.349Z,-2.66
2022-11-19T01:23:53.062Z,-2.69
2022-11-19T01:26:23.080Z,-2.67
2022-11-19T01:28:53.233Z,-2.65
2022-11-19T01:31:25.136Z,-2.62
2022-11-19T01:33:55.359Z,-2.66
2022-11-19T01:36:26.357Z,-2.65
2022-11-19T01:38:56.621Z,-2.60
2022-11-19T01:41:27.922Z,-2.58
2022-11-19T01:43:59.120Z,-2.60
2022-11-19T01:46:36.132Z,-2.60
2022-11-19T01:49:07.932Z,-2.60
2022-11-19T01:51:41.348Z,-2.58
2022-11-19T01:54:16.261Z,-2.59
2022-11-19T01:56:45.959Z,-2.59
2022-11-19T01:59:18.108Z,-2.63
2022-11-19T02:01:47.932Z,-2.59
2022-11-19T02:04:19.441Z,-2.60
2022-11-19T02:06:49.126Z,-2.57
2022-11-19T02:09:18.763Z,-2.63
2022-11-19T02:12:07.961Z,-2.57
2022-11-19T02:15:03.303Z,-2.55
2022-11-19T02:17:47.600Z,-2.57
2022-11-19T02:20:49.571Z,-2.59
2022-11-19T02:23:47.859Z,-2.62
2022-11-19T02:26:51.522Z,-2.63
2022-11-19T02:29:41.803Z,-2.64
2022-11-19T02:32:16.321Z,-2.67
2022-11-19T02:34:52.270Z,-2.65
2022-11-19T02:37:28.970Z,-2.66
2022-11-19T02:40:06.612Z,-2.65
2022-11-19T02:42:43.137Z,-2.63
2022-11-19T02:45:17.120Z,-2.63
2022-11-19T02:47:49.830Z,-2.63
2022-11-19T02:50:24.374Z,-2.61
2022-11-19T02:52:56.752Z,-2.59
2022-11-19T02:55:27.790Z,-2.58
2022-11-19T02:58:03.529Z,-2.58
2022-11-19T03:01:00.214Z,-2.56
2022-11-19T03:03:49.702Z,-2.58
2022-11-19T03:06:22.152Z,-2.60
2022-11-19T03:08:51.888Z,-2.60
2022-11-19T03:11:24.744Z,-2.58
2022-11-19T03:14:17.409Z,-2.60
2022-11-19T03:16:55.513Z,-2.55
2022-11-19T03:19:34.020Z,-2.50
2022-11-19T03:22:12.972Z,-2.47
2022-11-19T03:24:47.751Z,-2.46
2022-11-19T03:27:24.561Z,-2.47
2022-11-19T03:29:59.342Z,-2.46
2022-11-19T03:32:33.109Z,-2.47
2022-11-19T03:35:08.056Z,-2.50
2022-11-19T03:37:43.859Z,-2.50
2022-11-19T03:40:18.220Z,-2.49
2022-11-19T03:42:53.650Z,-2.52
2022-11-19T03:45:28.559Z,-2.54
2022-11-19T03:48:02.248Z,-2.52
2022-11-19T03:50:35.699Z,-2.55
2022-11-19T03:53:05.491Z,-2.56
2022-11-19T03:55:50.223Z,-2.55
2022-11-19T03:58:19.700Z,-2.54
2022-11-19T04:00:50.942Z,-2.50
2022-11-19T04:03:20.505Z,-2.51
2022-11-19T04:05:49.880Z,-2.58
2022-11-19T04:08:19.120Z,-2.58
2022-11-19T04:10:50.282Z,-2.62
2022-11-19T04:13:19.819Z,-2.59
2022-11-19T04:15:49.263Z,-2.61
2022-11-19T04:18:18.410Z,-2.63
2022-11-19T04:20:47.792Z,-2.66
2022-11-19T04:23:17.232Z,-2.66
2022-11-19T04:25:48.467Z,-2.65
2022-11-19T04:28:17.873Z,-2.63
2022-11-19T04:30:48.902Z,-2.65
2022-11-19T04:33:18.347Z,-2.71
2022-11-19T04:35:47.809Z,-2.69
2022-11-19T04:38:17.101Z,-2.70
2022-11-19T04:40:49.114Z,-2.67
2022-11-19T04:43:19.519Z,-2.68
2022-11-19T04:45:49.048Z,-2.63
2022-11-19T04:48:18.231Z,-2.60
2022-11-19T04:50:47.742Z,-2.61
2022-11-19T04:53:17.350Z,-2.66
2022-11-19T04:55:48.409Z,-2.61
2022-11-19T04:58:17.694Z,-2.64
2022-11-19T05:00:50.179Z,-2.62
2022-11-19T05:03:19.681Z,-2.64
2022-11-19T05:05:49.459Z,-2.65
2022-11-19T05:08:18.932Z,-2.66
2022-11-19T05:10:48.511Z,-2.66
2022-11-19T05:13:17.811Z,-2.70
2022-11-19T05:15:47.229Z,-2.74
2022-11-19T05:18:19.391Z,-2.75
2022-11-19T05:20:49.620Z,-2.77
2022-11-19T05:23:19.320Z,-2.75
2022-11-19T05:25:48.720Z,-2.73
2022-11-19T05:28:18.082Z,-2.76
2022-11-19T05:30:47.963Z,-2.77
2022-11-19T05:33:17.308Z,-2.78
2022-11-19T05:35:47.940Z,-2.82
2022-11-19T05:38:18.123Z,-2.88
2022-11-19T05:40:47.540Z,-2.97
2022-11-19T05:43:17.730Z,-2.98
2022-11-19T05:45:47.082Z,-2.97
2022-11-19T05:48:16.723Z,-2.95
2022-11-19T05:50:51.696Z,-2.98
2022-11-19T05:53:21.020Z,-3.01
2022-11-19T05:55:50.611Z,-3.02
2022-11-19T05:58:19.833Z,-2.98
2022-11-19T06:00:53.580Z,-3.01
2022-11-19T06:03:23.171Z,-2.97
2022-11-19T06:05:52.920Z,-3.00
2022-11-19T06:08:22.272Z,-3.03
2022-11-19T06:10:51.681Z,-3.07
2022-11-19T06:13:25.913Z,-3.12
2022-11-19T06:15:55.591Z,-3.10
2022-11-19T06:18:24.991Z,-3.11
2022-11-19T06:20:54.410Z,-3.09
2022-11-19T06:23:23.853Z,-3.09
2022-11-19T06:25:55.273Z,-3.12
2022-11-19T06:28:24.769Z,-3.10
2022-11-19T06:30:54.268Z,-3.09
2022-11-19T06:33:23.532Z,-3.11
2022-11-19T06:35:53.065Z,-3.08
2022-11-19T06:38:22.679Z,-3.07
2022-11-19T06:40:52.110Z,-3.02
2022-11-19T06:43:21.538Z,-3.03
2022-11-19T06:45:50.869Z,-3.00
2022-11-19T06:48:20.316Z,-3.00
2022-11-19T06:50:51.271Z,-2.95
2022-11-19T06:53:20.670Z,-2.93
2022-11-19T06:55:56.262Z,-2.91
2022-11-19T06:58:25.799Z,-2.90
2022-11-19T07:01:00.545Z,-2.90
2022-11-19T07:03:30.421Z,-2.87
2022-11-19T07:06:02.350Z,-2.82
2022-11-19T07:08:35.020Z,-2.83
2022-11-19T07:11:25.331Z,-2.88
2022-11-19T07:13:58.489Z,-2.81
2022-11-19T07:16:30.013Z,-2.81
2022-11-19T07:19:01.197Z,-2.82
2022-11-19T07:21:31.580Z,-2.82
2022-11-19T07:24:04.873Z,-2.84
2022-11-19T07:26:35.160Z,-2.83
2022-11-19T07:29:06.793Z,-2.79
2022-11-19T07:31:36.964Z,-2.76
2022-11-19T07:34:08.572Z,-2.74
2022-11-19T07:36:38.363Z,-2.67
2022-11-19T07:39:08.000Z,-2.61
2022-11-19T07:41:56.199Z,-2.56
2022-11-19T07:44:26.649Z,-2.52
2022-11-19T07:46:56.109Z,-2.50
2022-11-19T07:49:31.825Z,-2.49
2022-11-19T07:52:07.000Z,-2.49
2022-11-19T07:54:39.061Z,-2.45
2022-11-19T07:57:08.733Z,-2.42
2022-11-19T07:59:38.121Z,-2.41
2022-11-19T08:02:10.125Z,-2.39
2022-11-19T08:04:41.600Z,-2.38
2022-11-19T08:07:11.237Z,-2.36
2022-11-19T08:09:40.571Z,-2.35
2022-11-19T08:12:09.989Z,-2.32
2022-11-19T08:14:39.641Z,-2.33
2022-11-19T08:17:27.523Z,-2.34
2022-11-19T08:19:57.181Z,-2.37
2022-11-19T08:22:27.919Z,-2.41
2022-11-19T08:24:59.105Z,-2.47
2022-11-19T08:27:30.013Z,-2.47
2022-11-19T08:30:01.660Z,-2.45
2022-11-19T08:32:32.030Z,-2.47
2022-11-19T08:35:02.763Z,-2.43
2022-11-19T08:37:33.069Z,-2.39
2022-11-19T08:40:02.802Z,-2.35
2022-11-19T08:42:50.329Z,-2.35
2022-11-19T08:45:21.932Z,-2.30
2022-11-19T08:47:51.527Z,-2.15
2022-11-19T08:50:21.810Z,-1.84
2022-11-19T08:53:00.354Z,-1.53
2022-11-19T08:55:33.139Z,-1.33
2022-11-19T08:58:05.718Z,-1.10
2022-11-19T09:00:37.504Z,-0.88
2022-11-19T09:03:07.170Z,-0.77
2022-11-19T09:05:37.009Z,-0.61
2022-11-19T09:08:07.431Z,-0.47
2022-11-19T09:10:37.685Z,-0.28
2022-11-19T09:13:07.929Z,-0.09
2022-11-19T09:15:37.739Z,-0.03
2022-11-19T09:18:07.277Z,-0.24
2022-11-19T09:20:37.281Z,-0.35
2022-11-19T09:23:06.881Z,-0.46
2022-11-19T09:25:36.849Z,-0.45
2022-11-19T09:28:06.689Z,-0.47
2022-11-19T09:30:36.704Z,-0.35
2022-11-19T09:33:06.091Z,-0.05
2022-11-19T09:35:35.518Z,0.21
2022-11-19T09:38:06.019Z,0.36
2022-11-19T09:40:38.242Z,0.50
2022-11-19T09:43:16.537Z,0.63
2022-11-19T09:45:58.179Z,0.59
2022-11-19T09:48:34.810Z,0.46
2022-11-19T09:51:08.714Z,0.07
2022-11-19T09:53:46.594Z,-0.11
2022-11-19T09:56:22.761Z,0.02
2022-11-19T09:58:57.491Z,0.29
2022-11-19T10:01:29.990Z,0.47
2022-11-19T10:04:01.813Z,0.55
2022-11-19T10:06:46.389Z,0.49
2022-11-19T10:09:40.050Z,0.52
2022-11-19T10:12:26.229Z,0.67
2022-11-19T10:15:13.979Z,0.78
2022-11-19T10:17:58.318Z,0.86
2022-11-19T10:20:44.809Z,0.80
2022-11-19T10:23:19.090Z,0.67
2022-11-19T10:25:51.866Z,0.56
2022-11-19T10:28:25.940Z,0.41
2022-11-19T10:31:07.325Z,0.28
2022-11-19T10:33:43.083Z,0.12
2022-11-19T10:36:19.559Z,0.08
2022-11-19T10:39:04.760Z,0.21
2022-11-19T10:41:45.163Z,0.29
2022-11-19T10:44:42.809Z,0.36
2022-11-19T10:47:17.887Z,0.25
2022-11-19T10:49:53.709Z,0.12
2022-11-19T10:52:31.200Z,0.00
2022-11-19T10:55:12.779Z,-0.03
2022-11-19T10:57:42.478Z,-0.07
2022-11-19T11:00:20.988Z,-0.06
2022-11-19T11:03:02.622Z,-0.16
2022-11-19T11:05:53.927Z,-0.25
2022-11-19T11:08:23.602Z,-0.19
2022-11-19T11:10:53.523Z,-0.20
2022-11-19T11:13:54.304Z,-0.16
2022-11-19T11:16:26.311Z,-0.11
2022-11-19T11:18:58.733Z,-0.10
2022-11-19T11:21:35.560Z,-0.05
2022-11-19T11:24:07.671Z,-0.04
2022-11-19T11:26:37.610Z,-0.04
2022-11-19T11:29:26.481Z,-0.02
2022-11-19T11:31:56.021Z,-0.05
2022-11-19T11:34:33.929Z,-0.07
2022-11-19T11:37:06.522Z,-0.18
2022-11-19T11:39:37.571Z,-0.18
2022-11-19T11:42:16.066Z,-0.18
2022-11-19T11:44:52.485Z,-0.22
2022-11-19T11:47:28.989Z,-0.41
2022-11-19T11:50:07.080Z,-0.48
2022-11-19T11:52:43.038Z,-0.44
2022-11-19T11:55:29.330Z,-0.42
2022-11-19T11:58:00.739Z,-0.38
2022-11-19T12:00:36.870Z,-0.38
2022-11-19T12:03:08.410Z,-0.43
2022-11-19T12:05:58.101Z,-0.53
2022-11-19T12:08:43.401Z,-0.54
2022-11-19T12:11:20.473Z,-0.61
2022-11-19T12:13:59.422Z,-0.54
2022-11-19T12:16:50.157Z,-0.47
2022-11-19T12:19:40.824Z,-0.47
2022-11-19T12:22:20.846Z,-0.47
2022-11-19T12:25:05.630Z,-0.45
2022-11-19T12:27:41.890Z,-0.51
2022-11-19T12:30:18.171Z,-0.67
2022-11-19T12:33:11.804Z,-0.71
2022-11-19T12:35:52.998Z,-0.82
2022-11-19T12:38:37.946Z,-0.80
2022-11-19T12:41:21.872Z,-0.74
2022-11-19T12:43:56.748Z,-0.66
2022-11-19T12:46:39.180Z,-0.59
2022-11-19T12:49:26.698Z,-0.70
2022-11-19T12:52:03.499Z,-0.69
2022-11-19T12:54:45.670Z,-0.66
2022-11-19T12:57:33.933Z,-0.65
2022-11-19T13:00:11.401Z,-0.70
2022-11-19T13:02:51.561Z,-0.64
2022-11-19T13:05:27.619Z,-0.65
2022-11-19T13:08:01.859Z,-0.69
2022-11-19T13:10:36.890Z,-0.74
2022-11-19T13:13:09.212Z,-0.94
2022-11-19T13:15:42.950Z,-0.87
2022-11-19T13:18:14.040Z,-0.87
2022-11-19T13:20:47.861Z,-0.94
2022-11-19T13:23:24.980Z,-1.02
2022-11-19T13:25:59.374Z,-1.06
2022-11-19T13:28:34.959Z,-1.12
2022-11-19T13:31:13.251Z,-1.09
2022-11-19T13:33:52.828Z,-1.19
2022-11-19T13:36:29.686Z,-1.36
2022-11-19T13:39:05.021Z,-1.49
2022-11-19T13:42:01.364Z,-1.55
2022-11-19T13:44:41.123Z,-1.52
2022-11-19T13:47:18.992Z,-1.33
2022-11-19T13:49:54.549Z,-1.41
2022-11-19T13:52:30.111Z,-1.54
2022-11-19T13:55:03.743Z,-1.58
2022-11-19T13:57:44.581Z,-1.62
2022-11-19T14:00:28.432Z,-1.69
2022-11-19T14:03:26.373Z,-1.58
2022-11-19T14:06:34.791Z,-1.58
2022-11-19T14:09:20.072Z,-1.56
2022-11-19T14:12:11.424Z,-1.72
2022-11-19T14:15:26.893Z,-1.68
2022-11-19T14:18:23.969Z,-1.69
2022-11-19T14:21:11.185Z,-1.59
2022-11-19T14:24:07.750Z,-1.67
2022-11-19T14:27:14.969Z,-1.72
2022-11-19T14:30:01.123Z,-1.65
2022-11-19T14:32:34.498Z,-1.56
2022-11-19T14:35:38.681Z,-1.49
2022-11-19T14:38:35.961Z,-1.57
2022-11-19T14:41:16.212Z,-1.57
2022-11-19T14:44:09.523Z,-1.68
2022-11-19T14:46:42.558Z,-1.62
2022-11-19T14:49:26.607Z,-1.62
2022-11-19T14:51:58.247Z,-1.72
2022-11-19T14:54:33.019Z,-1.74
2022-11-19T14:57:05.851Z,-1.93
2022-11-19T14:59:40.182Z,-1.88
2022-11-19T15:02:23.581Z,-1.87
2022-11-19T15:04:58.328Z,-1.90
2022-11-19T15:07:37.458Z,-1.85
2022-11-19T15:10:27.460Z,-1.90
2022-11-19T15:13:27.799Z,-1.91
2022-11-19T15:16:03.641Z,-2.01
2022-11-19T15:19:04.632Z,-2.08
2022-11-19T15:22:20.200Z,-2.15
2022-11-19T15:25:15.088Z,-2.14
2022-11-19T15:28:01.078Z,-2.14
2022-11-19T15:30:45.419Z,-2.13
2022-11-19T15:33:42.219Z,-2.05
2022-11-19T15:36:32.909Z,-2.08
2022-11-19T15:39:10.170Z,-2.02
2022-11-19T15:41:44.002Z,-2.04
2022-11-19T15:44:17.999Z,-2.09
2022-11-19T15:46:53.010Z,-2.05
2022-11-19T15:49:25.561Z,-2.02
2022-11-19T15:52:06.390Z,-1.94
2022-11-19T15:54:39.902Z,-1.85
2022-11-19T15:57:23.050Z,-1.82
2022-11-19T15:59:58.651Z,-1.76
2022-11-19T16:02:38.721Z,-1.78
2022-11-19T16:05:21.615Z,-1.79
2022-11-19T16:07:52.513Z,-1.73
2022-11-19T16:10:28.427Z,-1.69
2022-11-19T16:13:17.771Z,-1.67
2022-11-19T16:16:09.929Z,-1.66
2022-11-19T16:18:47.622Z,-1.61
2022-11-19T16:21:21.901Z,-1.68
2022-11-19T16:24:10.020Z,-1.71
2022-11-19T16:26:41.434Z,-1.72
2022-11-19T16:29:18.199Z,-1.88
2022-11-19T16:31:50.231Z,-1.94
2022-11-19T16:34:23.841Z,-2.01
2022-11-19T16:36:52.775Z,-1.95
2022-11-19T16:39:25.571Z,-2.04
2022-11-19T16:42:15.959Z,-2.04
2022-11-19T16:44:47.786Z,-2.02
2022-11-19T16:47:24.397Z,-2.01
2022-11-19T16:50:06.923Z,-2.09
2022-11-19T16:52:42.437Z,-2.10
2022-11-19T16:55:51.142Z,-2.05
2022-11-19T16:58:27.633Z,-2.00
2022-11-19T17:00:59.168Z,-1.98
2022-11-19T17:03:34.851Z,-1.96
2022-11-19T17:06:06.209Z,-1.98
2022-11-19T17:08:38.149Z,-2.05
2022-11-19T17:11:37.129Z,-2.25
2022-11-19T17:14:13.321Z,-2.38
2022-11-19T17:16:46.729Z,-2.46
2022-11-19T17:19:25.674Z,-2.52
2022-11-19T17:22:00.114Z,-2.69
2022-11-19T17:24:37.043Z,-2.84
2022-11-19T17:27:07.785Z,-2.85
2022-11-19T17:29:37.518Z,-2.95
2022-11-19T17:32:07.420Z,-3.02
2022-11-19T17:34:45.861Z,-3.11
2022-11-19T17:37:15.499Z,-3.16
2022-11-19T17:39:45.148Z,-3.19
2022-11-19T17:42:32.660Z,-3.25
2022-11-19T17:45:07.593Z,-3.27
2022-11-19T17:47:46.497Z,-3.26
2022-11-19T17:50:22.160Z,-3.29
2022-11-19T17:53:03.743Z,-3.32
2022-11-19T17:55:40.866Z,-3.33
2022-11-19T17:58:15.234Z,-3.40
2022-11-19T18:00:49.662Z,-3.44
2022-11-19T18:03:27.323Z,-3.43
2022-11-19T18:06:07.169Z,-3.43
2022-11-19T18:08:51.407Z,-3.40
2022-11-19T18:11:33.668Z,-3.51
2022-11-19T18:14:12.147Z,-3.62
2022-11-19T18:16:52.280Z,-3.71
2022-11-19T18:19:30.085Z,-3.73
2022-11-19T18:22:07.301Z,-3.75
2022-11-19T18:24:42.350Z,-3.77
2022-11-19T18:27:23.470Z,-3.80
2022-11-19T18:30:21.688Z,-3.81
2022-11-19T18:33:06.515Z,-3.86
2022-11-19T18:35:52.489Z,-3.89
2022-11-19T18:38:33.120Z,-3.93
2022-11-19T18:41:08.494Z,-4.01
2022-11-19T18:44:05.921Z,-4.04
2022-11-19T18:46:45.780Z,-4.09
2022-11-19T18:49:23.145Z,-4.10
2022-11-19T18:52:03.289Z,-4.13
2022-11-19T18:54:43.214Z,-4.17
2022-11-19T18:57:21.920Z,-4.22
2022-11-19T19:00:01.311Z,-4.18
2022-11-19T19:02:37.961Z,-4.14
2022-11-19T19:05:21.512Z,-4.16
2022-11-19T19:07:57.422Z,-4.17
2022-11-19T19:10:34.091Z,-4.18
2022-11-19T19:13:09.569Z,-4.18
2022-11-19T19:15:49.040Z,-4.17
2022-11-19T19:18:23.622Z,-4.19
2022-11-19T19:20:59.346Z,-4.20
2022-11-19T19:23:34.688Z,-4.22
2022-11-19T19:26:13.847Z,-4.31
2022-11-19T19:28:50.907Z,-4.40
2022-11-19T19:31:33.373Z,-4.48
2022-11-19T19:34:11.511Z,-4.40
2022-11-19T19:36:53.522Z,-4.28
2022-11-19T19:39:32.497Z,-4.19
2022-11-19T19:42:08.532Z,-4.15
2022-11-19T19:44:48.348Z,-4.13
2022-11-19T19:47:31.747Z,-4.12
2022-11-19T19:50:21.421Z,-4.05
2022-11-19T19:53:08.163Z,-4.05
2022-11-19T19:55:54.540Z,-4.09
2022-11-19T19:58:33.622Z,-4.15
2022-11-19T20:01:15.099Z,-4.16
2022-11-19T20:03:56.612Z,-4.23
2022-11-19T20:06:33.030Z,-4.19
2022-11-19T20:09:09.011Z,-4.11
2022-11-19T20:11:47.122Z,-4.06
2022-11-19T20:14:27.669Z,-4.08
2022-11-19T20:17:06.102Z,-4.11
2022-11-19T20:19:41.341Z,-4.06
2022-11-19T20:22:16.049Z,-4.07
2022-11-19T20:24:56.930Z,-4.08
2022-11-19T20:27:35.285Z,-4.08
2022-11-19T20:30:12.830Z,-4.08
2022-11-19T20:32:49.551Z,-4.06
2022-11-19T20:35:26.382Z,-4.03
2022-11-19T20:38:05.051Z,-4.08
2022-11-19T20:40:40.289Z,-4.18
2022-11-19T20:43:52.448Z,-4.23
2022-11-19T20:46:28.055Z,-4.22
2022-11-19T20:49:02.065Z,-4.17
2022-11-19T20:51:38.470Z,-4.15
2022-11-19T20:54:18.288Z,-4.14
2022-11-19T20:56:52.758Z,-4.14
2022-11-19T20:59:27.756Z,-4.12
2022-11-19T21:02:03.213Z,-4.17
2022-11-19T21:04:40.000Z,-4.27
2022-11-19T21:07:14.380Z,-4.31
2022-11-19T21:09:48.943Z,-4.34
2022-11-19T21:12:22.179Z,-4.33
2022-11-19T21:14:57.997Z,-4.28
2022-11-19T21:17:38.146Z,-4.27
2022-11-19T21:20:12.682Z,-4.30
2022-11-19T21:22:50.060Z,-4.26
2022-11-19T21:25:29.179Z,-4.28
2022-11-19T21:28:07.667Z,-4.28
2022-11-19T21:30:46.648Z,-4.25
2022-11-19T21:33:27.320Z,-4.24
2022-11-19T21:36:01.757Z,-4.24
2022-11-19T21:38:35.945Z,-4.30
2022-11-19T21:41:08.711Z,-4.36
2022-11-19T21:43:43.257Z,-4.45
2022-11-19T21:46:17.684Z,-4.54
2022-11-19T21:48:54.148Z,-4.52
2022-11-19T21:51:26.867Z,-4.51
2022-11-19T21:54:01.652Z,-4.54
2022-11-19T21:56:38.639Z,-4.52
2022-11-19T21:59:14.920Z,-4.53
2022-11-19T22:01:54.717Z,-4.56
2022-11-19T22:04:31.408Z,-4.60
2022-11-19T22:07:09.044Z,-4.58
2022-11-19T22:09:43.399Z,-4.56
2022-11-19T22:12:15.291Z,-4.57
2022-11-19T22:14:52.557Z,-4.60
2022-11-19T22:17:32.683Z,-4.60
2022-11-19T22:20:08.839Z,-4.65
2022-11-19T22:22:45.750Z,-4.67
2022-11-19T22:25:22.970Z,-4.73
2022-11-19T22:27:57.068Z,-4.72
2022-11-19T22:30:33.874Z,-4.87
2022-11-19T22:33:09.941Z,-4.85
2022-11-19T22:35:44.741Z,-4.88
2022-11-19T22:38:18.412Z,-4.84
2022-11-19T22:40:52.088Z,-4.82
2022-11-19T22:43:26.306Z,-4.78
2022-11-19T22:45:59.569Z,-4.79
2022-11-19T22:48:33.833Z,-4.78
2022-11-19T22:51:10.312Z,-4.77
2022-11-19T22:53:47.150Z,-4.81
2022-11-19T22:56:24.484Z,-4.80
2022-11-19T22:58:59.713Z,-4.82
2022-11-19T23:01:33.451Z,-4.85
2022-11-19T23:04:10.018Z,-4.86
2022-11-19T23:06:43.388Z,-4.87
2022-11-19T23:09:14.131Z,-4.87
2022-11-19T23:12:06.005Z,-4.93
2022-11-19T23:14:41.558Z,-4.90
2022-11-19T23:17:14.404Z,-4.92
2022-11-19T23:19:48.398Z,-4.94
2022-11-19T23:22:21.483Z,-4.95
2022-11-19T23:24:55.063Z,-5.00
2022-11-19T23:27:26.821Z,-5.00
2022-11-19T23:29:59.452Z,-4.98
2022-11-19T23:32:32.649Z,-4.97
2022-11-19T23:35:05.056Z,-5.00
2022-11-19T23:37:36.671Z,-5.05
2022-11-19T23:40:11.151Z,-5.06
2022-11-19T23:42:45.708Z,-5.08
2022-11-19T23:45:21.744Z,-5.09
2022-11-19T23:47:54.862Z,-5.11
2022-11-19T23:50:27.332Z,-5.18
2022-11-19T23:52:59.934Z,-5.34
2022-11-19T23:55:32.837Z,-5.41
2022-11-19T23:58:05.135Z,-5.46
